Time;durP1;ratioP1;P1;durP2;ratioP2;P2;SDS_P1;SDS_P2;PMS_P1;PMS_P2;Temp;Humidity;BMP_temperature;BMP_pressure;BME280_temperature;BME280_humidity;BME280_pressure;Samples;Min_cycle;Max_cycle;Signal;HPM_P1;HPM_P2
2022/09/02 00:01:56;;;;;;;3.05;1.45;;;;;;;15.93;53.47;101692.28;10502142;28;20045;-70
2022/09/02 00:06:57;;;;;;;1.65;0.90;;;;;;;15.91;54.07;101695.22;10501896;28;20531;-69
2022/09/02 00:11:57;;;;;;;0.85;0.85;;;;;;;15.85;53.57;101696.06;10501688;28;20044;-69
2022/09/02 00:16:59;;;;;;;2.67;2.00;;;;;;;15.73;53.68;101686.84;10501992;28;20057;-69
2022/09/02 00:22:00;;;;;;;1.83;1.50;;;;;;;15.64;53.61;101686.22;10500693;28;20072;-69
2022/09/02 00:27:00;;;;;;;1.30;1.20;;;;;;;15.63;55.27;101679.03;10483281;28;20028;-71
2022/09/02 00:32:01;;;;;;;1.40;1.30;;;;;;;15.62;55.46;101673.81;10500322;28;20028;-70
2022/09/02 00:37:01;;;;;;;2.08;1.92;;;;;;;15.57;54.39;101672.56;10501067;28;20029;-70
2022/09/02 00:42:02;;;;;;;1.42;1.33;;;;;;;15.51;55.42;101670.69;10501119;28;20458;-69
2022/09/02 00:47:02;;;;;;;1.20;1.15;;;;;;;15.47;55.56;101668.56;10498401;28;20120;-69
2022/09/02 00:52:25;;;;;;;1.58;1.48;;;;;;;15.40;56.44;101667.75;10499546;28;20392;-69
2022/09/02 00:57:30;;;;;;;6.43;1.77;;;;;;;15.34;56.34;101661.22;10500062;28;20349;-69
2022/09/02 01:02:31;;;;;;;1.88;1.40;;;;;;;15.29;57.51;101661.03;10499035;28;20036;-69
2022/09/02 01:07:33;;;;;;;3.42;2.35;;;;;;;15.23;59.52;101649.06;10481740;28;20357;-69
2022/09/02 01:12:34;;;;;;;1.83;1.52;;;;;;;15.24;58.88;101649.91;10482611;28;20031;-69
2022/09/02 01:17:35;;;;;;;2.05;1.27;;;;;;;15.17;60.10;101659.97;10499663;28;20073;-69
2022/09/02 01:22:35;;;;;;;0.90;0.90;;;;;;;15.11;59.43;101646.13;10497943;28;20036;-69
2022/09/02 01:27:36;;;;;;;1.30;1.23;;;;;;;15.04;60.74;101639.81;10498866;28;20037;-69
2022/09/02 01:32:36;;;;;;;6.57;1.58;;;;;;;15.02;59.58;101644.63;10498797;28;20049;-69
2022/09/02 01:37:37;;;;;;;3.10;1.73;;;;;;;14.91;60.45;101642.53;10499169;28;20033;-70
2022/09/02 01:42:38;;;;;;;1.50;1.27;;;;;;;14.86;60.57;101632.25;10499785;28;20510;-70
2022/09/02 01:47:39;;;;;;;4.88;1.63;;;;;;;14.80;59.51;101629.50;10480730;28;20032;-70
2022/09/02 01:52:40;;;;;;;2.00;1.60;;;;;;;14.73;58.74;101631.41;10499018;28;20472;-70
2022/09/02 01:57:40;;;;;;;5.10;1.48;;;;;;;14.67;61.10;101626.78;10498197;28;20033;-69
2022/09/02 02:02:41;;;;;;;2.00;1.90;;;;;;;14.61;61.06;101622.97;10496931;28;20544;-70
2022/09/02 02:07:42;;;;;;;1.67;1.58;;;;;;;14.55;60.51;101624.66;10498156;28;20098;-69
2022/09/02 02:12:43;;;;;;;1.52;1.40;;;;;;;14.51;61.64;101628.81;10497334;28;20472;-69
2022/09/02 02:17:43;;;;;;;1.65;1.55;;;;;;;14.40;61.93;101618.50;10503033;28;20057;-69
2022/09/02 02:22:44;;;;;;;2.63;1.83;;;;;;;14.34;62.19;101619.31;10506619;28;20040;-69
2022/09/02 02:27:45;;;;;;;9.88;1.83;;;;;;;14.32;63.21;101615.97;10506603;28;20060;-70
2022/09/02 02:32:48;;;;;;;2.55;1.40;;;;;;;14.29;62.68;101613.63;10505575;28;20028;-69
2022/09/02 02:37:49;;;;;;;7.15;1.55;;;;;;;14.27;64.10;101602.97;10505261;28;20024;-69
2022/09/02 02:42:52;;;;;;;2.75;1.38;;;;;;;14.24;62.33;101602.53;10522026;28;20040;-70
2022/09/02 02:47:52;;;;;;;1.00;1.00;;;;;;;14.15;63.18;101613.59;10503919;28;20041;-69
2022/09/02 02:52:53;;;;;;;1.92;1.75;;;;;;;14.14;63.34;101611.09;10471090;28;20043;-69
2022/09/02 02:57:54;;;;;;;2.58;1.50;;;;;;;14.06;62.83;101598.47;10502973;28;20036;-70
2022/09/02 03:02:55;;;;;;;1.52;1.40;;;;;;;14.01;64.11;101603.72;10503727;28;20056;-70
2022/09/02 03:07:56;;;;;;;1.70;1.60;;;;;;;13.95;63.68;101590.91;10503139;28;20054;-69
2022/09/02 03:12:57;;;;;;;3.50;1.73;;;;;;;13.88;64.69;101595.44;10486018;28;20040;-70
2022/09/02 03:17:57;;;;;;;1.00;1.00;;;;;;;13.80;65.39;101582.03;10502237;28;20098;-69
2022/09/02 03:22:58;;;;;;;1.80;1.70;;;;;;;13.76;65.00;101584.31;10504197;28;20040;-69
2022/09/02 03:27:59;;;;;;;16.48;1.70;;;;;;;13.75;65.70;101588.06;10501021;28;20106;-69
2022/09/02 03:33:00;;;;;;;1.33;1.23;;;;;;;13.76;67.05;101589.75;10502186;28;20384;-69
2022/09/02 03:38:00;;;;;;;2.33;2.13;;;;;;;13.74;64.81;101589.13;10485989;28;20025;-69
2022/09/02 03:43:01;;;;;;;6.43;2.20;;;;;;;13.70;65.04;101583.25;10503503;28;20040;-69
2022/09/02 03:48:01;;;;;;;3.92;1.80;;;;;;;13.69;66.85;101580.72;10503070;28;20036;-69
2022/09/02 03:53:02;;;;;;;10.55;1.63;;;;;;;13.70;66.26;101575.06;10502383;28;20086;-69
2022/09/02 03:58:02;;;;;;;2.72;1.50;;;;;;;13.72;66.65;101569.44;10500740;28;20036;-69
2022/09/02 04:03:03;;;;;;;5.35;1.88;;;;;;;13.75;65.33;101569.00;10501626;28;20500;-69
2022/09/02 04:08:03;;;;;;;4.00;1.60;;;;;;;13.72;68.56;101570.28;10501918;28;20032;-69
2022/09/02 04:13:03;;;;;;;4.95;1.67;;;;;;;13.83;66.93;101557.13;10501878;28;20029;-69
2022/09/02 04:18:04;;;;;;;3.40;1.98;;;;;;;13.82;66.96;101561.75;10503021;28;20048;-69
2022/09/02 04:23:04;;;;;;;2.70;1.80;;;;;;;13.73;69.05;101550.16;10500471;28;20097;-69
2022/09/02 04:28:05;;;;;;;1.17;1.17;;;;;;;13.72;67.42;101547.66;10499945;28;20043;-69
2022/09/02 04:33:05;;;;;;;6.63;2.00;;;;;;;13.66;66.61;101553.91;10500895;28;20115;-69
2022/09/02 04:38:06;;;;;;;1.70;1.60;;;;;;;13.60;68.69;101538.41;10500141;28;20035;-69
2022/09/02 04:43:06;;;;;;;5.65;2.03;;;;;;;13.62;67.86;101550.72;10501638;28;20146;-69
2022/09/02 04:48:07;;;;;;;3.83;2.17;;;;;;;13.64;68.34;101545.09;10499059;28;20032;-69
2022/09/02 04:53:07;;;;;;;5.70;2.22;;;;;;;13.63;68.26;101548.88;10499561;28;20093;-69
2022/09/02 04:58:08;;;;;;;1.95;1.63;;;;;;;13.56;70.25;101537.09;10499085;28;20020;-69
2022/09/02 05:03:10;;;;;;;2.20;1.88;;;;;;;13.54;69.36;101548.19;10498535;28;20460;-70
2022/09/02 05:08:11;;;;;;;1.88;1.77;;;;;;;13.52;70.26;101549.44;10499286;28;20491;-69
2022/09/02 05:13:12;;;;;;;1.90;1.77;;;;;;;13.52;70.90;101550.25;10499409;28;20071;-69
2022/09/02 05:18:13;;;;;;;3.38;1.88;;;;;;;13.57;69.67;101545.06;10500619;28;20076;-70
2022/09/02 05:23:13;;;;;;;2.10;1.90;;;;;;;13.56;69.89;101554.28;10498970;28;20101;-69
2022/09/02 05:28:15;;;;;;;7.43;2.55;;;;;;;13.56;70.16;101553.41;10482773;28;20056;-70
2022/09/02 05:33:15;;;;;;;1.60;1.50;;;;;;;13.62;69.80;101550.72;10500280;28;20044;-69
2022/09/02 05:38:16;;;;;;;2.03;1.92;;;;;;;13.68;69.43;101551.81;10498488;28;20033;-69
2022/09/02 05:43:16;;;;;;;3.08;1.80;;;;;;;13.73;70.12;101558.34;10496976;28;20036;-69
2022/09/02 05:53:35;;;;;;;7.32;1.70;;;;;;;13.93;70.50;101552.97;10497100;28;20028;-70
2022/09/02 05:58:36;;;;;;;2.05;1.95;;;;;;;14.15;69.77;101537.34;10498889;28;20028;-70
2022/09/02 06:03:36;;;;;;;4.22;2.10;;;;;;;14.43;70.06;101549.97;10496472;28;20036;-69
2022/09/02 06:08:37;;;;;;;2.50;2.13;;;;;;;14.65;68.98;101548.78;10496124;28;20487;-69
2022/09/02 06:13:39;;;;;;;1.98;1.65;;;;;;;15.02;67.51;101548.34;10496661;28;20119;-69
2022/09/02 06:18:39;;;;;;;15.15;1.98;;;;;;;15.33;67.06;101544.94;10496181;28;20493;-69
2022/09/02 06:23:40;;;;;;;1.75;1.65;;;;;;;15.62;66.33;101542.75;10497556;28;20079;-69
2022/09/02 06:28:40;;;;;;;4.60;2.42;;;;;;;15.80;65.01;101540.22;10496748;28;20516;-72
2022/09/02 06:33:42;;;;;;;2.75;2.30;;;;;;;16.73;63.12;101531.44;10497031;28;20033;-73
2022/09/02 06:38:44;;;;;;;1.63;1.52;;;;;;;17.02;61.41;101532.69;10479459;28;20048;-74
2022/09/02 06:43:44;;;;;;;3.72;2.47;;;;;;;17.34;60.28;101525.19;10496686;28;20043;-74
2022/09/02 06:48:45;;;;;;;4.38;2.35;;;;;;;18.34;57.65;101532.16;10495844;28;20498;-74
2022/09/02 06:53:45;;;;;;;5.32;2.28;;;;;;;18.79;55.34;101535.28;10498902;28;20437;-73
2022/09/02 06:58:46;;;;;;;4.80;1.88;;;;;;;19.42;53.53;101530.13;10496283;28;20480;-71
2022/09/02 07:09:06;;;;;;;2.45;2.25;;;;;;;20.00;51.64;101504.44;10503528;28;20037;-80
2022/09/02 07:14:07;;;;;;;6.90;2.20;;;;;;;19.86;50.13;101520.38;10503683;28;20081;-67
2022/09/02 07:19:07;;;;;;;3.78;2.65;;;;;;;19.76;51.17;101520.19;10501856;28;20182;-69
2022/09/02 07:24:08;;;;;;;2.45;2.05;;;;;;;20.35;49.87;101507.00;10503326;28;20448;-69
2022/09/02 07:29:09;;;;;;;3.17;2.38;;;;;;;19.91;50.62;101505.88;10486898;28;20119;-71
2022/09/02 07:34:09;;;;;;;7.07;2.08;;;;;;;19.79;51.06;101507.88;10502344;28;20041;-67
2022/09/02 07:39:10;;;;;;;1.88;1.77;;;;;;;20.54;49.52;101493.03;10501726;28;20082;-68
2022/09/02 07:44:11;;;;;;;3.78;2.78;;;;;;;20.75;48.63;101497.81;10501151;28;20060;-65
2022/09/02 07:49:12;;;;;;;5.72;2.97;;;;;;;20.38;49.33;101501.00;10502947;28;20439;-65
2022/09/02 07:54:13;;;;;;;8.55;3.67;;;;;;;20.16;49.37;101500.88;10502537;28;20071;-68
2022/09/02 07:59:13;;;;;;;3.40;2.70;;;;;;;21.19;47.74;101483.31;10501758;28;20611;-70
2022/09/02 08:04:14;;;;;;;6.40;3.53;;;;;;;21.79;47.02;101493.47;10502741;28;20036;-68
2022/09/02 08:09:14;;;;;;;2.80;2.60;;;;;;;22.15;47.72;101497.47;10501994;28;20452;-65
2022/09/02 08:14:17;;;;;;;3.50;2.38;;;;;;;21.89;46.43;101495.50;10502329;28;20059;-69
2022/09/02 08:19:18;;;;;;;3.75;2.70;;;;;;;21.52;47.17;101487.91;10500521;28;20040;-68
2022/09/02 08:24:18;;;;;;;3.08;2.65;;;;;;;21.13;48.84;101480.47;10499994;28;20093;-67
2022/09/02 08:29:18;;;;;;;4.15;3.20;;;;;;;20.88;49.43;101482.88;10499669;28;20032;-69
2022/09/02 08:34:19;;;;;;;3.42;3.13;;;;;;;21.61;48.57;101474.53;10500650;28;20040;-69
2022/09/02 08:39:19;;;;;;;3.47;3.17;;;;;;;22.25;48.10;101475.50;10501582;28;20060;-67
2022/09/02 08:44:21;;;;;;;3.05;2.85;;;;;;;21.79;47.47;101474.16;10500381;28;20041;-65
2022/09/02 08:49:24;;;;;;;3.35;3.13;;;;;;;22.69;46.60;101475.34;10481848;28;20384;-66
2022/09/02 08:54:29;;;;;;;3.53;3.25;;;;;;;23.35;45.03;101465.81;10481971;28;20089;-74
2022/09/02 08:59:30;;;;;;;5.28;3.97;;;;;;;23.34;44.12;101462.22;10498380;28;20028;-69
2022/09/02 09:04:47;;;;;;;5.55;3.50;;;;;;;23.79;43.76;101454.38;10464993;28;20384;-70
2022/09/02 09:10:06;;;;;;;3.65;3.33;;;;;;;24.29;43.47;101455.56;10497590;28;20067;-64
2022/09/02 09:15:35;;;;;;;4.50;2.95;;;;;;;24.45;42.51;101456.44;10497620;28;20106;-65
2022/09/02 09:20:40;;;;;;;4.63;4.22;;;;;;;24.57;43.52;101451.47;10498711;28;20029;-69
2022/09/02 09:25:40;;;;;;;10.05;4.82;;;;;;;25.31;42.90;101449.09;10480276;28;20376;-69
2022/09/02 09:30:41;;;;;;;4.15;3.63;;;;;;;25.64;40.70;101450.31;10499466;28;20043;-68
2022/09/02 09:35:52;;;;;;;14.88;4.07;;;;;;;25.38;41.19;101444.06;10496297;28;20032;-71
2022/09/02 09:41:09;;;;;;;4.80;3.50;;;;;;;25.87;40.33;101448.81;10496636;28;20440;-66
2022/09/02 09:46:31;;;;;;;8.68;3.88;;;;;;;25.85;40.18;101435.25;10483048;28;20028;-67
2022/09/02 09:51:31;;;;;;;10.10;3.70;;;;;;;25.96;40.98;101441.56;10497190;28;20036;-71
2022/09/02 09:56:33;;;;;;;4.38;3.97;;;;;;;25.37;40.33;101442.41;10496612;28;20024;-73
2022/09/02 10:01:33;;;;;;;7.22;3.72;;;;;;;25.22;41.72;101437.75;10497005;28;20036;-66
2022/09/02 10:06:41;;;;;;;4.15;3.53;;;;;;;25.46;42.21;101438.78;10496670;28;20033;-68
2022/09/02 10:12:02;;;;;;;19.17;4.70;;;;;;;25.33;41.68;101438.53;10496244;28;20176;-69
2022/09/02 10:17:14;;;;;;;4.68;4.25;;;;;;;25.28;42.25;101444.94;10496943;28;20055;-70
2022/09/02 10:22:52;;;;;;;6.57;3.83;;;;;;;26.42;42.25;101433.72;10496807;28;20163;-71
2022/09/02 10:28:06;;;;;;;7.40;4.38;;;;;;;27.73;38.40;101428.91;10497453;28;20044;-71
2022/09/02 10:33:16;;;;;;;7.90;3.58;;;;;;;28.04;37.60;101411.75;10405957;28;20462;-71
2022/09/02 10:38:34;;;;;;;5.65;4.50;;;;;;;28.22;37.72;101407.28;10458082;28;20392;-71
2022/09/02 10:43:52;;;;;;;6.15;3.80;;;;;;;28.28;37.34;101406.91;10463663;28;20041;-70
2022/09/02 10:49:13;;;;;;;5.30;4.90;;;;;;;28.64;36.84;101400.72;10462100;28;20083;-69
2022/09/02 10:54:38;;;;;;;4.47;4.18;;;;;;;28.88;36.49;101400.53;10461765;28;20037;-69
2022/09/02 10:59:57;;;;;;;4.03;3.63;;;;;;;29.25;36.58;101389.50;10462956;28;20431;-69
2022/09/02 11:04:59;;;;;;;4.70;4.35;;;;;;;29.73;35.64;101389.81;10462574;28;20028;-69
2022/09/02 11:10:05;;;;;;;12.43;4.28;;;;;;;30.00;35.81;101371.31;10461032;28;20036;-69
2022/09/02 11:15:44;;;;;;;5.50;3.92;;;;;;;29.79;33.34;101368.19;10461558;28;20370;-69
2022/09/02 11:20:54;;;;;;;3.05;2.85;;;;;;;29.31;35.10;101377.91;10456608;28;20045;-69
2022/09/02 11:26:00;;;;;;;4.97;3.80;;;;;;;29.19;35.44;101356.13;10460856;28;20036;-69
2022/09/02 11:31:09;;;;;;;;;;;;;;;29.28;34.85;101355.41;10444942;28;20025;-66
2022/09/02 11:36:09;;;;;;;10.90;3.00;;;;;;;29.55;33.97;101349.75;10459687;28;19913;-69
2022/09/02 11:41:27;;;;;;;3.78;3.30;;;;;;;29.48;34.28;101340.16;10460264;28;20029;-70
2022/09/02 11:46:53;;;;;;;5.05;3.35;;;;;;;29.36;34.90;101343.50;10459902;28;20074;-70
2022/09/02 11:52:20;;;;;;;5.00;3.95;;;;;;;30.10;34.86;101348.72;10459542;28;20116;-71
2022/09/02 11:57:22;;;;;;;8.75;2.90;;;;;;;30.10;34.08;101331.97;10441181;28;20413;-70
2022/09/02 12:02:42;;;;;;;3.45;3.15;;;;;;;30.15;33.76;101317.84;10426128;28;20083;-71
2022/09/02 12:07:48;;;;;;;2.92;2.70;;;;;;;30.01;32.99;101319.91;10459070;28;20079;-72
2022/09/02 12:12:52;;;;;;;3.10;2.80;;;;;;;29.87;33.16;101326.41;10459221;28;20090;-74
2022/09/02 12:17:52;;;;;;;7.15;3.63;;;;;;;29.69;33.43;101321.81;10461229;28;20090;-76
2022/09/02 12:22:53;;;;;;;2.77;2.50;;;;;;;29.84;32.67;101301.09;10462201;28;20484;-81
2022/09/02 12:28:13;;;;;;;3.22;2.83;;;;;;;29.63;32.28;101320.28;10442893;28;20166;-81
2022/09/02 12:33:14;;;;;;;2.60;2.40;;;;;;;29.33;32.53;101303.13;10459378;28;20037;-80
2022/09/02 12:38:23;;;;;;;8.23;3.10;;;;;;;29.31;32.38;101297.00;10441847;28;20029;-82
2022/09/02 12:43:31;;;;;;;3.08;2.65;;;;;;;28.86;32.21;101294.09;10458511;28;20033;-81
2022/09/02 12:48:39;;;;;;;8.73;3.10;;;;;;;29.18;30.94;101287.53;10442885;28;20040;-84
2022/09/02 12:53:45;;;;;;;8.25;3.00;;;;;;;29.18;31.30;101272.78;10445030;28;20048;-84
2022/09/02 12:58:56;;;;;;;4.15;2.35;;;;;;;29.48;29.54;101284.34;10443335;28;20043;-82
2022/09/02 13:04:06;;;;;;;5.63;3.33;;;;;;;29.56;29.60;101278.84;10466461;28;20527;-84
2022/09/02 13:09:19;;;;;;;2.53;2.33;;;;;;;29.19;28.91;101269.66;10459165;28;20033;-84
2022/09/02 13:14:46;;;;;;;4.82;3.33;;;;;;;29.23;29.11;101274.59;10458413;28;20057;-76
2022/09/02 13:19:46;;;;;;;;;;;;;;;29.36;29.54;101255.06;10457056;28;20107;-79
2022/09/02 13:25:15;;;;;;;3.38;3.08;;;;;;;29.48;28.28;101254.47;10457580;28;20055;-80
2022/09/02 13:30:21;;;;;;;19.02;3.30;;;;;;;29.02;28.21;101251.97;10457271;28;20056;-77
2022/09/02 13:35:24;;;;;;;2.55;2.40;;;;;;;29.22;29.36;101250.66;10456470;28;20048;-81
2022/09/02 13:40:32;;;;;;;9.30;2.92;;;;;;;29.44;27.59;101248.69;10439513;28;20094;-77
2022/09/02 13:45:33;;;;;;;2.25;2.15;;;;;;;29.21;27.36;101241.47;10457495;28;20068;-78
2022/09/02 13:50:33;;;;;;;2.67;2.47;;;;;;;29.42;28.15;101251.00;10439104;28;20036;-83
2022/09/02 13:55:34;;;;;;;4.70;3.22;;;;;;;29.08;28.20;101231.19;10461219;28;20045;-84
2022/09/02 14:00:36;;;;;;;2.83;2.30;;;;;;;29.07;28.66;101223.94;10428978;28;20065;-81
2022/09/02 14:05:37;;;;;;;3.17;2.97;;;;;;;28.98;28.10;101224.69;10459116;28;20029;-82
2022/09/02 14:10:38;;;;;;;8.00;3.15;;;;;;;28.74;28.88;101235.25;10455675;28;20037;-77
2022/09/02 14:15:38;;;;;;;2.47;2.28;;;;;;;28.77;29.15;101217.09;10446684;28;20040;-77
2022/09/02 14:21:08;;;;;;;3.58;3.20;;;;;;;29.02;28.68;101204.56;10447591;28;20029;-79
2022/09/02 14:26:08;;;;;;;2.85;2.50;;;;;;;28.91;29.28;101199.19;10465842;28;20040;-83
2022/09/02 14:31:23;;;;;;;2.22;2.13;;;;;;;28.52;28.27;101192.22;10468555;28;20039;-84
2022/09/02 14:36:23;;;;;;;2.35;2.05;;;;;;;28.27;29.45;101192.75;10464661;28;20032;-71
2022/09/02 14:41:25;;;;;;;3.22;2.40;;;;;;;28.37;29.35;101183.38;10462759;28;20039;-70
2022/09/02 14:46:32;;;;;;;2.33;2.15;;;;;;;28.42;29.90;101178.53;10462712;28;20041;-72
2022/09/02 14:51:44;;;;;;;10.32;3.20;;;;;;;28.30;29.42;101183.75;10461951;28;20029;-71
2022/09/02 14:56:47;;;;;;;5.30;2.05;;;;;;;27.59;29.62;101164.50;10461100;28;20037;-71
2022/09/02 15:01:50;;;;;;;1.98;1.88;;;;;;;26.95;30.48;101163.31;10461549;28;20087;-73
2022/09/02 15:06:50;;;;;;;13.57;3.15;;;;;;;26.53;31.22;101158.66;10444186;28;20098;-71
2022/09/02 15:11:52;;;;;;;3.30;3.05;;;;;;;26.31;31.71;101175.84;10445254;28;20098;-71
2022/09/02 15:16:53;;;;;;;1.80;1.70;;;;;;;26.06;32.04;101160.34;10444074;28;20068;-72
2022/09/02 15:21:54;;;;;;;2.30;2.20;;;;;;;25.98;31.87;101170.16;10463326;28;20041;-71
2022/09/02 15:26:54;;;;;;;2.67;1.80;;;;;;;25.74;32.25;101158.97;10462354;28;20041;-71
2022/09/02 15:31:55;;;;;;;4.93;2.63;;;;;;;25.71;32.52;101160.38;10462601;28;20274;-71
2022/09/02 15:36:56;;;;;;;4.93;2.67;;;;;;;25.55;32.40;101135.88;10459785;28;20040;-71
2022/09/02 15:41:56;;;;;;;5.40;2.58;;;;;;;25.62;33.01;101141.91;10462528;28;20063;-71
2022/09/02 15:46:57;;;;;;;2.72;2.17;;;;;;;25.42;32.48;101142.94;10460300;28;20043;-72
2022/09/02 15:51:57;;;;;;;2.35;2.10;;;;;;;25.31;32.85;101131.13;10460534;28;20436;-71
2022/09/02 15:56:57;;;;;;;2.92;2.65;;;;;;;25.33;33.38;101133.59;10460681;28;20029;-71
2022/09/02 16:01:59;;;;;;;14.07;2.88;;;;;;;25.15;34.11;101127.66;10461067;28;20136;-71
2022/09/02 16:07:00;;;;;;;7.88;2.75;;;;;;;24.97;35.08;101125.53;10459715;28;20114;-71
2022/09/02 16:12:00;;;;;;;2.75;2.55;;;;;;;24.87;34.59;101131.16;10459958;28;20044;-71
2022/09/02 16:17:00;;;;;;;2.65;2.45;;;;;;;24.80;34.74;101121.25;10459335;28;20386;-71
2022/09/02 16:22:01;;;;;;;9.85;2.38;;;;;;;24.74;35.33;101116.03;10442057;28;20127;-72
2022/09/02 16:27:02;;;;;;;4.20;3.08;;;;;;;24.73;35.01;101115.19;10459816;28;20033;-71
2022/09/02 16:32:02;;;;;;;4.75;3.33;;;;;;;24.73;34.75;101119.88;10459577;28;20033;-71
2022/09/02 16:37:03;;;;;;;4.13;2.28;;;;;;;24.67;34.45;101107.22;10441231;28;20091;-71
2022/09/02 16:42:03;;;;;;;5.43;2.35;;;;;;;24.62;34.70;101105.28;10459276;28;20044;-71
2022/09/02 16:47:04;;;;;;;2.42;2.22;;;;;;;24.66;34.89;101098.06;10457724;28;20123;-72
2022/09/02 16:52:04;;;;;;;3.40;2.28;;;;;;;24.68;34.72;101097.78;10459202;28;20040;-72
2022/09/02 16:57:05;;;;;;;3.92;2.55;;;;;;;24.68;34.54;101089.47;10457606;28;20035;-71
2022/09/02 17:02:05;;;;;;;2.55;2.35;;;;;;;24.63;34.54;101083.97;10458751;28;20028;-71
2022/09/02 17:07:06;;;;;;;2.08;1.90;;;;;;;24.61;34.50;101092.56;10457722;28;20096;-71
2022/09/02 17:12:07;;;;;;;1.98;1.85;;;;;;;24.57;34.70;101074.88;10457427;28;20080;-71
2022/09/02 17:17:07;;;;;;;2.17;1.98;;;;;;;24.45;34.45;101071.63;10458046;28;20151;-71
2022/09/02 17:22:08;;;;;;;6.28;2.25;;;;;;;24.41;35.09;101082.47;10456289;28;20037;-71
2022/09/02 17:27:08;;;;;;;4.72;2.10;;;;;;;24.26;35.46;101072.25;10456922;28;20071;-72
2022/09/02 17:32:08;;;;;;;2.88;2.33;;;;;;;24.20;35.72;101067.84;10457935;28;20392;-72
2022/09/02 17:37:09;;;;;;;2.83;2.40;;;;;;;24.06;36.01;101075.13;10457004;28;20082;-71
2022/09/02 17:42:09;;;;;;;2.38;2.17;;;;;;;23.92;36.39;101079.63;10457411;28;20127;-71
2022/09/02 17:47:15;;;;;;;2.25;2.15;;;;;;;23.85;36.34;101079.91;10456474;28;20087;-72
2022/09/02 17:52:20;;;;;;;1.95;1.85;;;;;;;23.70;37.03;101080.78;10456899;28;20406;-72
2022/09/02 17:57:32;;;;;;;2.55;2.35;;;;;;;23.53;37.47;101085.78;10457906;28;20033;-71
2022/09/02 18:02:36;;;;;;;3.50;2.42;;;;;;;23.46;37.62;101076.97;10439922;28;20123;-71
2022/09/02 18:07:48;;;;;;;5.95;3.13;;;;;;;23.23;37.75;101068.16;10456962;28;20067;-71
2022/09/02 18:12:48;;;;;;;3.47;2.45;;;;;;;23.13;38.47;101073.66;10457543;28;20048;-72
2022/09/02 18:17:51;;;;;;;2.10;1.95;;;;;;;23.03;38.13;101066.22;10456285;28;20049;-71
2022/09/02 18:22:51;;;;;;;6.40;2.03;;;;;;;22.85;39.16;101066.75;10454820;28;20453;-71
2022/09/02 18:28:05;;;;;;;5.45;3.03;;;;;;;22.67;39.02;101063.41;10456108;28;20111;-71
2022/09/02 18:33:24;;;;;;;1.98;1.88;;;;;;;22.51;39.57;101072.78;10440537;28;20488;-71
2022/09/02 18:38:42;;;;;;;2.33;2.15;;;;;;;22.36;39.55;101070.81;10455824;28;20029;-71
2022/09/02 18:44:20;;;;;;;6.45;2.22;;;;;;;22.17;40.08;101073.22;10455611;28;20029;-71
2022/09/02 18:49:21;;;;;;;2.75;2.55;;;;;;;22.03;40.75;101085.84;10406094;28;20044;-74
2022/09/02 18:54:43;;;;;;;2.45;2.22;;;;;;;21.96;40.47;101080.59;10438505;28;20064;-73
2022/09/02 19:00:02;;;;;;;5.68;2.33;;;;;;;21.83;40.91;101076.41;10460150;28;20108;-72
2022/09/02 19:05:06;;;;;;;2.40;2.28;;;;;;;21.77;41.05;101084.91;10461784;28;20024;-72
2022/09/02 19:10:07;;;;;;;4.40;2.42;;;;;;;21.67;40.94;101082.09;10463566;28;20029;-72
2022/09/02 19:15:09;;;;;;;2.25;2.05;;;;;;;21.56;41.45;101081.19;10461866;28;20029;-72
2022/09/02 19:20:10;;;;;;;3.80;2.53;;;;;;;21.49;41.75;101086.94;10460544;28;20029;-71
2022/09/02 19:25:18;;;;;;;2.60;2.40;;;;;;;21.45;41.41;101091.34;10464548;28;20353;-72
2022/09/02 19:30:23;;;;;;;6.20;2.10;;;;;;;21.37;42.13;101094.56;10445971;28;20021;-71
2022/09/02 19:35:25;;;;;;;5.32;2.78;;;;;;;21.33;42.07;101096.19;10460924;28;20033;-71
2022/09/02 19:40:31;;;;;;;5.28;2.20;;;;;;;21.23;42.65;101087.84;10461827;28;20111;-72
2022/09/02 19:45:36;;;;;;;3.45;2.30;;;;;;;21.11;42.70;101096.28;10461502;28;20033;-71
2022/09/02 19:50:40;;;;;;;3.75;2.33;;;;;;;20.99;42.75;101098.38;10444065;28;20029;-72
2022/09/02 19:55:41;;;;;;;2.50;2.30;;;;;;;20.84;43.53;101108.19;10459774;28;20360;-72
2022/09/02 20:00:41;;;;;;;2.45;2.25;;;;;;;20.70;43.61;101106.91;10460465;28;20032;-71
2022/09/02 20:05:42;;;;;;;6.80;2.67;;;;;;;20.62;43.48;101105.47;10443011;28;20029;-71
2022/09/02 20:10:43;;;;;;;7.40;2.67;;;;;;;20.58;43.81;101107.09;10457549;28;20025;-72
2022/09/02 20:15:44;;;;;;;6.80;2.15;;;;;;;20.55;43.86;101106.75;10460002;28;20052;-72
2022/09/02 20:20:45;;;;;;;3.00;2.80;;;;;;;20.52;43.98;101110.88;10460705;28;20051;-72
2022/09/02 20:25:58;;;;;;;1.90;1.80;;;;;;;20.47;43.96;101107.19;10442081;28;20490;-72
2022/09/02 20:31:23;;;;;;;4.03;3.03;;;;;;;20.33;44.34;101113.13;10458919;28;20627;-72
2022/09/02 20:36:33;;;;;;;3.17;2.85;;;;;;;20.27;44.39;101105.06;10447562;28;20033;-71
2022/09/02 20:41:41;;;;;;;3.35;2.88;;;;;;;20.14;44.87;101098.03;10458634;28;20420;-71
2022/09/02 20:47:01;;;;;;;3.00;2.45;;;;;;;20.05;45.24;101094.91;10457807;28;20043;-70
2022/09/02 20:52:05;;;;;;;2.78;2.45;;;;;;;20.00;44.89;101097.56;10458193;28;20056;-72
2022/09/02 20:57:24;;;;;;;3.00;2.70;;;;;;;19.91;44.81;101094.47;10458402;28;20467;-72
2022/09/02 21:02:28;;;;;;;3.55;2.45;;;;;;;19.80;45.23;101092.66;10458625;28;20109;-73
2022/09/02 21:08:02;;;;;;;2.47;2.28;;;;;;;19.76;45.04;101085.19;10440816;28;20037;-74
2022/09/02 21:13:08;;;;;;;2.97;2.65;;;;;;;19.74;44.92;101097.22;10443367;28;20040;-73
2022/09/02 21:18:22;;;;;;;2.28;1.98;;;;;;;19.74;44.76;101091.75;10458406;28;20040;-72
2022/09/02 21:23:28;;;;;;;2.20;2.00;;;;;;;19.80;44.66;101089.06;10457069;28;20063;-73
2022/09/02 21:28:35;;;;;;;2.15;1.95;;;;;;;19.82;44.50;101086.91;10440697;28;20028;-72
2022/09/02 21:33:35;;;;;;;2.05;1.95;;;;;;;19.78;44.40;101085.75;10439926;28;20120;-73
2022/09/02 21:38:43;;;;;;;2.13;1.95;;;;;;;19.70;44.48;101081.53;10439600;28;20029;-72
2022/09/02 21:44:21;;;;;;;2.97;1.60;;;;;;;19.65;44.30;101074.03;10457377;28;20482;-72
2022/09/02 21:49:41;;;;;;;2.80;2.10;;;;;;;19.56;44.80;101081.03;10458458;28;20033;-73
2022/09/02 21:55:06;;;;;;;2.33;2.20;;;;;;;19.50;44.50;101074.63;10456095;28;20094;-73
2022/09/02 22:00:08;;;;;;;2.00;1.90;;;;;;;19.41;44.95;101078.06;10456380;28;20029;-73
2022/09/02 22:05:18;;;;;;;2.85;2.65;;;;;;;19.29;45.80;101070.72;10456047;28;20029;-72
2022/09/02 22:10:27;;;;;;;9.55;2.30;;;;;;;19.31;45.45;101055.94;10458074;28;20060;-73
2022/09/02 22:15:33;;;;;;;8.73;2.50;;;;;;;19.28;45.53;101063.59;10439665;28;20048;-71
2022/09/02 22:20:34;;;;;;;2.95;2.33;;;;;;;19.24;45.81;101054.19;10457052;28;20510;-71
2022/09/02 22:25:35;;;;;;;1.98;1.88;;;;;;;19.22;46.06;101059.09;10456886;28;20171;-71
2022/09/02 22:30:37;;;;;;;1.65;1.55;;;;;;;19.19;46.08;101051.38;10455293;28;20109;-71
2022/09/02 22:35:43;;;;;;;3.13;2.40;;;;;;;19.20;46.06;101053.03;10462076;28;20033;-71
2022/09/02 22:40:49;;;;;;;2.33;2.22;;;;;;;19.20;45.89;101061.25;10465043;28;20032;-71
2022/09/02 22:57:13;;;;;;;2.97;1.95;;;;;;;18.97;47.10;101064.19;10464031;28;20051;-71
2022/09/02 23:02:20;;;;;;;2.70;2.03;;;;;;;18.98;46.59;101054.88;10463767;28;20118;-71
2022/09/02 23:07:22;;;;;;;1.95;1.85;;;;;;;18.82;47.81;101042.81;10462140;28;20028;-71
2022/09/02 23:13:03;;;;;;;2.30;2.10;;;;;;;18.80;47.72;101048.56;10445051;28;20029;-71
2022/09/02 23:18:07;;;;;;;3.33;1.73;;;;;;;18.64;48.28;101045.78;10375459;28;20062;-71
2022/09/02 23:23:12;;;;;;;3.33;2.70;;;;;;;18.61;48.36;101049.84;10444088;28;20044;-72
2022/09/02 23:28:37;;;;;;;2.92;2.28;;;;;;;18.47;48.97;101042.97;10462121;28;20094;-71
2022/09/02 23:34:05;;;;;;;2.83;2.35;;;;;;;18.39;49.26;101048.88;10462200;28;20033;-71
2022/09/02 23:39:20;;;;;;;2.28;2.08;;;;;;;18.28;49.44;101040.47;10461626;28;20369;-71
2022/09/02 23:44:21;;;;;;;2.00;1.83;;;;;;;18.20;50.24;101027.16;10461035;28;20040;-71